Huvudsida
METAR-TAF:

METAR-TAF

Flygplatser :

Air Force Base Hoedspruit - Eastgate Airport

Hoedspruit, Sydafrika

latitud: 24-21-17S, longitud: 31-03-01E, höjd: 531 m

Aktuellt väderrapport

Denna rapport gjordes för 1 timme och 3 minuter sedan, klockan 12:00 UTC
Vind 7 kt från sydost
Temperatur 29°C
Fuktighet 33%
Tryck 1018 hPa

METAR: FAHS 191200Z AUTO 14007KT //// // ////// 29/11 Q1018

Tid: 15:03 (13:03 UTC)

Väderprognos

Denna rapport gjordes för 3 timmar och 53 minuter sedan, klockan 09:10 UTC
Prognos gäller från 19 kl. 10 UTC till 19 kl. 18 UTC
Vind 9 kt från syd/sydost
Sikt 10 km eller mer
Inga moln under 1 500 m eller inga cumulonimbus

TAF: FAHS 190910Z 1910/1918 15009KT CAVOK TX28/1912Z TN18/1918Z

Aktuella väderrapporter och prognoser från 4000 flygplatser (METAR- och TAF-rapporter).

De tillgängliga stationerna syns som gula och röda prickar på kartan.

För musen över prickarna för att se namnen på stationerna.

Klicka sedan för att få väderrapporter och prognoser.

För att ändra kartan: Klicka på de gröna knapparna med ett svart kors på för att zooma in; den gröna knappen med ett streck på för att zooma ut; eller på de gröna pilarna för angränsande kartor.


METAR-TAF: